Terminal Aerodrome Forecast
Issued by NWS

Home | Current Version | Previous Version | Text Only | Print | Product List | Glossary Off
Versions: 1 2 3 4 5 6 7 8 9 10 11 12 13

358
FTUS43 KGRB 232337
TAFMTW
TAF
KMTW 232337Z 2400/2424 16015G22KT P6SM OVC040 WS013/19040KT
      TEMPO 2402/2404 3SM TSRA BR OVC025CB
     FM240500 19008KT 4SM RA BR OVC020 WS018/23040KT
     FM241000 20004KT 3SM -RA BR OVC014
     FM241400 VRB03KT 2SM -RA OVC007
     FM241700 02008KT 1 1/2SM -RA OVC003=

USA.gov is the U.S. government's official web portal to all federal, state and local government web resources and services.